Time;durP1;ratioP1;P1;durP2;ratioP2;P2;SDS_P1;SDS_P2;PMS_P1;PMS_P2;Temp;Humidity;BMP_temperature;BMP_pressure;BME280_temperature;BME280_humidity;BME280_pressure;Samples;Min_cycle;Max_cycle;Signal;HPM_P1;HPM_P2
2022/02/18 00:02:48;;;;;;;2.03;1.67;;;10.20;56.10;;;;;;6275245;28;20485;-63
2022/02/18 00:05:52;;;;;;;4.13;1.30;;;10.10;55.80;;;;;;6275464;28;20488;-62
2022/02/18 00:08:55;;;;;;;4.03;1.30;;;10.20;55.80;;;;;;6275481;28;20473;-63
2022/02/18 00:11:59;;;;;;;6.33;1.27;;;10.10;55.60;;;;;;6275532;28;20541;-63
2022/02/18 00:15:03;;;;;;;3.17;1.40;;;10.10;55.20;;;;;;6274954;28;20973;-63
2022/02/18 00:18:06;;;;;;;2.97;1.60;;;10.10;55.00;;;;;;6275088;28;20481;-63
2022/02/18 00:21:09;;;;;;;2.20;1.00;;;10.10;54.50;;;;;;6274985;28;20476;-63
2022/02/18 00:24:13;;;;;;;4.87;1.37;;;10.10;54.50;;;;;;6275254;28;20477;-63
2022/02/18 00:27:17;;;;;;;5.73;2.00;;;10.10;54.40;;;;;;6275579;28;20474;-65
2022/02/18 00:30:20;;;;;;;5.20;1.47;;;10.10;54.50;;;;;;6274997;28;21107;-64
2022/02/18 00:33:23;;;;;;;4.10;1.87;;;10.10;55.40;;;;;;6275298;28;20478;-64
2022/02/18 00:36:27;;;;;;;4.90;1.73;;;10.00;55.60;;;;;;6275685;28;20472;-64
2022/02/18 00:39:30;;;;;;;2.27;1.30;;;10.00;55.90;;;;;;6275528;28;20465;-63
2022/02/18 00:42:34;;;;;;;4.47;1.30;;;9.90;55.00;;;;;;6274725;28;20493;-63
2022/02/18 00:45:37;;;;;;;4.93;1.77;;;9.90;55.20;;;;;;6274757;28;20473;-63
2022/02/18 00:48:42;;;;;;;1.60;1.20;;;9.90;55.20;;;;;;6274512;28;20464;-63
2022/02/18 00:51:45;;;;;;;2.40;1.00;;;9.90;55.50;;;;;;6274462;28;20489;-62
2022/02/18 00:54:48;;;;;;;8.73;1.80;;;9.90;55.90;;;;;;6274751;28;20478;-62
2022/02/18 00:57:52;;;;;;;2.17;1.80;;;9.70;55.80;;;;;;6274396;28;20515;-62
2022/02/18 01:00:56;;;;;;;5.27;1.67;;;9.70;56.30;;;;;;6275010;28;20480;-63
2022/02/18 01:03:59;;;;;;;4.20;2.00;;;9.70;56.00;;;;;;6276614;28;20970;-62
2022/02/18 01:07:02;;;;;;;2.63;1.50;;;9.60;55.40;;;;;;6279572;28;20499;-62
2022/02/18 01:10:08;;;;;;;3.70;1.23;;;9.70;54.80;;;;;;6279134;28;20492;-62
2022/02/18 01:13:12;;;;;;;2.70;1.50;;;9.60;54.40;;;;;;6279148;28;20488;-62
2022/02/18 01:16:15;;;;;;;5.00;1.77;;;9.60;53.10;;;;;;6278949;28;20477;-62
2022/02/18 01:19:19;;;;;;;2.40;1.37;;;9.70;52.20;;;;;;6279260;28;20481;-62
2022/02/18 01:22:22;;;;;;;4.27;2.00;;;9.80;51.50;;;;;;6269860;28;20490;-63
2022/02/18 01:25:25;;;;;;;5.30;1.70;;;9.80;50.80;;;;;;6279509;28;20793;-62
2022/02/18 01:28:30;;;;;;;1.73;1.00;;;9.90;50.40;;;;;;6279009;28;20977;-63
2022/02/18 01:31:33;;;;;;;2.37;1.53;;;9.90;51.90;;;;;;6278742;28;20969;-62
2022/02/18 01:34:37;;;;;;;2.77;1.43;;;9.70;54.50;;;;;;6279045;28;20461;-62
2022/02/18 01:37:40;;;;;;;2.80;1.00;;;9.80;54.70;;;;;;6302594;28;20517;-64
2022/02/18 01:40:43;;;;;;;3.53;1.13;;;9.80;55.20;;;;;;6278733;28;20859;-63
2022/02/18 01:43:53;;;;;;;1.23;0.93;;;9.70;55.70;;;;;;6278732;28;20480;-63
2022/02/18 01:46:56;;;;;;;3.80;1.27;;;9.70;56.20;;;;;;6278889;28;20484;-63
2022/02/18 01:49:59;;;;;;;4.13;1.40;;;9.70;56.40;;;;;;6278639;28;20471;-63
2022/02/18 01:53:02;;;;;;;3.63;1.40;;;9.70;56.40;;;;;;6278790;28;20485;-63
2022/02/18 01:56:06;;;;;;;2.50;1.37;;;9.60;56.80;;;;;;6278344;28;20480;-63
2022/02/18 01:59:11;;;;;;;4.00;1.40;;;9.50;57.00;;;;;;6278460;28;20473;-63
2022/02/18 02:02:14;;;;;;;5.23;1.77;;;9.50;56.80;;;;;;6278619;28;20480;-64
2022/02/18 02:05:18;;;;;;;2.30;1.40;;;9.50;57.20;;;;;;6278163;28;20480;-63
2022/02/18 02:08:21;;;;;;;5.43;1.83;;;9.50;57.30;;;;;;6277615;28;20526;-63
2022/02/18 02:11:24;;;;;;;3.60;1.57;;;9.50;58.00;;;;;;6277721;28;20480;-63
2022/02/18 02:14:29;;;;;;;4.20;1.90;;;9.50;57.00;;;;;;6277364;28;20480;-63
2022/02/18 02:17:32;;;;;;;3.20;1.60;;;9.40;56.80;;;;;;6277557;28;20998;-63
2022/02/18 02:20:35;;;;;;;4.13;1.50;;;9.40;56.30;;;;;;6278400;28;20492;-63
2022/02/18 02:23:39;;;;;;;4.20;1.87;;;9.50;57.00;;;;;;6278108;28;20952;-63
2022/02/18 02:26:43;;;;;;;2.70;1.30;;;9.60;57.10;;;;;;6273105;28;20956;-63
2022/02/18 02:29:48;;;;;;;4.47;1.40;;;9.60;57.30;;;;;;6277161;28;20469;-63
2022/02/18 02:32:51;;;;;;;3.33;1.97;;;9.60;57.20;;;;;;6277302;28;20969;-63
2022/02/18 02:35:54;;;;;;;3.13;1.70;;;9.50;56.60;;;;;;6277449;28;20481;-63
2022/02/18 02:38:59;;;;;;;4.03;1.80;;;9.30;57.60;;;;;;6277389;28;20492;-63
2022/02/18 02:42:04;;;;;;;2.80;1.27;;;9.30;58.10;;;;;;6277427;28;20496;-63
2022/02/18 02:45:07;;;;;;;3.43;1.60;;;9.30;58.50;;;;;;6277788;28;20487;-63
2022/02/18 02:48:11;;;;;;;6.20;2.13;;;9.30;58.80;;;;;;6277186;28;20468;-63
2022/02/18 02:51:14;;;;;;;4.43;2.63;;;9.40;58.90;;;;;;6277644;28;20480;-63
2022/02/18 02:54:19;;;;;;;4.70;1.60;;;9.20;58.90;;;;;;6278196;28;20481;-63
2022/02/18 02:57:22;;;;;;;2.60;1.70;;;9.20;59.10;;;;;;6278094;28;20487;-63
2022/02/18 03:00:25;;;;;;;3.70;1.60;;;9.20;59.30;;;;;;6277797;28;20490;-63
2022/02/18 03:03:28;;;;;;;5.43;1.80;;;9.30;59.00;;;;;;6277050;28;20802;-63
2022/02/18 03:06:31;;;;;;;2.80;1.60;;;9.30;58.80;;;;;;6276767;28;20481;-63
2022/02/18 03:09:36;;;;;;;2.07;1.10;;;9.30;58.60;;;;;;6277079;28;20473;-63
2022/02/18 03:12:41;;;;;;;16.53;3.07;;;9.30;58.20;;;;;;6276438;28;20494;-63
2022/02/18 03:15:44;;;;;;;2.10;1.60;;;9.10;57.80;;;;;;6277159;28;20965;-63
2022/02/18 03:18:49;;;;;;;3.20;1.60;;;9.20;59.00;;;;;;6276788;28;20480;-63
2022/02/18 03:21:54;;;;;;;4.57;1.90;;;9.30;59.30;;;;;;6276330;28;20477;-63
2022/02/18 03:24:59;;;;;;;9.10;2.10;;;9.40;59.80;;;;;;6276321;28;20492;-63
2022/02/18 03:28:02;;;;;;;3.43;2.00;;;9.40;59.70;;;;;;6275867;28;21013;-63
2022/02/18 03:31:08;;;;;;;6.63;1.63;;;9.40;59.80;;;;;;6276342;28;20467;-63
2022/02/18 03:34:11;;;;;;;3.63;2.10;;;9.40;59.60;;;;;;6276036;28;20948;-63
2022/02/18 03:37:14;;;;;;;3.70;1.77;;;9.40;59.40;;;;;;6276260;28;20480;-63
2022/02/18 03:40:19;;;;;;;5.10;1.30;;;9.30;59.50;;;;;;6275820;28;20614;-63
2022/02/18 03:43:22;;;;;;;3.50;1.47;;;9.30;60.10;;;;;;6276173;28;20476;-63
2022/02/18 03:46:25;;;;;;;2.53;1.50;;;9.20;60.70;;;;;;6276157;28;20478;-62
2022/02/18 03:49:28;;;;;;;3.07;1.80;;;9.20;60.70;;;;;;6275742;28;20511;-62
2022/02/18 03:52:31;;;;;;;4.47;2.57;;;9.20;59.90;;;;;;6275556;28;20489;-62
2022/02/18 03:55:36;;;;;;;4.60;1.77;;;9.10;59.50;;;;;;6275643;28;20485;-63
2022/02/18 03:58:39;;;;;;;2.97;1.57;;;9.00;60.00;;;;;;6275438;28;20472;-62
2022/02/18 04:01:42;;;;;;;4.43;1.60;;;9.00;60.20;;;;;;6275034;28;20810;-62
2022/02/18 04:04:45;;;;;;;5.73;1.73;;;9.00;60.70;;;;;;6275211;28;20453;-62
2022/02/18 04:07:49;;;;;;;4.00;1.57;;;9.10;61.00;;;;;;6275240;28;20887;-62
2022/02/18 04:10:53;;;;;;;4.60;2.30;;;9.00;61.00;;;;;;6275682;28;20449;-62
2022/02/18 04:13:56;;;;;;;6.00;1.97;;;9.10;61.50;;;;;;6274350;28;20468;-62
2022/02/18 04:16:59;;;;;;;6.37;2.30;;;9.00;61.90;;;;;;6275559;28;20858;-62
2022/02/18 04:20:03;;;;;;;7.47;3.07;;;8.90;62.40;;;;;;6275453;28;20478;-63
2022/02/18 04:23:26;;;;;;;4.73;2.07;;;8.90;62.70;;;;;;6275315;28;20532;-63
2022/02/18 04:26:30;;;;;;;3.80;2.40;;;8.80;63.50;;;;;;6275321;28;20938;-63
2022/02/18 04:29:33;;;;;;;2.53;2.30;;;8.80;64.00;;;;;;6274936;28;20975;-63
2022/02/18 04:32:36;;;;;;;8.40;2.53;;;8.70;64.40;;;;;;6266534;28;20506;-63
2022/02/18 04:35:39;;;;;;;5.63;2.50;;;8.60;65.00;;;;;;6275129;28;20483;-63
2022/02/18 04:38:43;;;;;;;2.93;2.10;;;8.60;65.30;;;;;;6274758;28;20477;-63
2022/02/18 04:41:48;;;;;;;5.10;2.47;;;8.60;65.80;;;;;;6274972;28;20489;-63
2022/02/18 04:44:51;;;;;;;4.33;2.30;;;8.60;66.40;;;;;;6274859;28;20483;-63
2022/02/18 04:47:54;;;;;;;3.13;2.53;;;8.50;66.60;;;;;;6274659;28;20476;-63
2022/02/18 04:50:57;;;;;;;3.43;2.27;;;8.50;67.00;;;;;;6274952;28;20534;-63
2022/02/18 04:54:11;;;;;;;2.50;2.00;;;8.50;67.00;;;;;;6274935;28;20476;-63
2022/02/18 04:57:15;;;;;;;5.50;2.10;;;8.60;67.10;;;;;;6274712;28;20545;-63
2022/02/18 05:00:20;;;;;;;6.83;2.67;;;8.50;67.10;;;;;;6274567;28;20943;-63
2022/02/18 05:03:23;;;;;;;8.47;3.07;;;8.50;67.40;;;;;;6274949;28;20479;-63
2022/02/18 05:06:26;;;;;;;8.00;2.47;;;8.60;67.70;;;;;;6275366;28;20480;-63
2022/02/18 05:09:29;;;;;;;4.47;2.10;;;8.60;67.70;;;;;;6274574;28;20476;-63
2022/02/18 05:12:34;;;;;;;6.60;3.00;;;8.60;67.80;;;;;;6274332;28;20999;-63
2022/02/18 05:15:37;;;;;;;8.53;3.20;;;8.60;68.10;;;;;;6274683;28;20779;-63
2022/02/18 05:18:40;;;;;;;4.10;2.27;;;8.50;68.30;;;;;;6274542;28;20473;-64
2022/02/18 05:21:43;;;;;;;6.87;2.43;;;8.50;68.30;;;;;;6275005;28;20487;-63
2022/02/18 05:24:46;;;;;;;8.90;3.97;;;8.50;68.00;;;;;;6274755;28;20481;-63
2022/02/18 05:27:52;;;;;;;15.67;2.90;;;8.50;67.80;;;;;;6274516;28;20471;-63
2022/02/18 05:30:55;;;;;;;13.57;3.03;;;8.50;67.60;;;;;;6274323;28;20483;-63
2022/02/18 05:33:58;;;;;;;17.70;4.60;;;8.40;67.70;;;;;;6274202;28;20488;-63
2022/02/18 05:37:01;;;;;;;13.13;3.23;;;8.40;68.10;;;;;;6265068;28;20474;-64
2022/02/18 05:40:05;;;;;;;9.83;3.03;;;8.50;68.10;;;;;;6273856;28;20492;-62
2022/02/18 05:43:10;;;;;;;10.80;3.50;;;8.40;68.00;;;;;;6274248;28;20475;-63
2022/02/18 05:46:13;;;;;;;7.60;2.50;;;8.40;67.90;;;;;;6274050;28;20467;-63
2022/02/18 05:49:16;;;;;;;10.33;3.53;;;8.30;68.00;;;;;;6274241;28;20476;-63
2022/02/18 05:52:19;;;;;;;7.83;2.60;;;8.30;68.60;;;;;;6277904;28;20479;-63
2022/02/18 05:55:22;;;;;;;7.53;2.70;;;8.30;68.80;;;;;;6278200;28;20468;-62
2022/02/18 05:58:27;;;;;;;17.37;4.60;;;8.20;68.70;;;;;;6278540;28;20473;-64
2022/02/18 06:01:30;;;;;;;10.77;3.47;;;8.30;68.90;;;;;;6277703;28;20474;-63
2022/02/18 06:04:33;;;;;;;20.30;6.50;;;8.20;69.10;;;;;;6278226;28;20531;-63
2022/02/18 06:07:36;;;;;;;12.27;5.30;;;8.20;69.50;;;;;;6277978;28;20476;-63
2022/02/18 06:10:39;;;;;;;18.73;3.90;;;8.20;69.70;;;;;;6278546;28;20456;-63
2022/02/18 06:13:44;;;;;;;8.50;3.43;;;8.20;70.10;;;;;;6301733;28;20491;-63
2022/02/18 06:16:47;;;;;;;15.87;3.47;;;8.10;70.20;;;;;;6278054;28;20443;-63
2022/02/18 06:19:50;;;;;;;11.73;4.77;;;8.10;70.40;;;;;;6277456;28;20448;-63
2022/02/18 06:22:53;;;;;;;15.23;5.03;;;8.10;70.70;;;;;;6277743;28;20483;-63
2022/02/18 06:25:56;;;;;;;13.53;3.97;;;8.10;70.80;;;;;;6277365;28;20470;-63
2022/02/18 06:29:01;;;;;;;15.10;4.87;;;8.10;71.30;;;;;;6278953;28;20459;-64
2022/02/18 06:32:07;;;;;;;11.40;4.30;;;8.10;71.30;;;;;;6277261;28;20502;-63
2022/02/18 06:35:10;;;;;;;15.93;7.33;;;8.10;71.50;;;;;;6278047;28;20982;-63
2022/02/18 06:38:14;;;;;;;21.07;10.70;;;8.00;71.60;;;;;;6273175;28;20480;-63
2022/02/18 06:41:22;;;;;;;14.97;5.03;;;8.10;72.00;;;;;;6276848;28;20966;-63
2022/02/18 06:44:27;;;;;;;21.93;5.10;;;8.20;72.00;;;;;;6276996;28;20475;-64
2022/02/18 06:47:30;;;;;;;25.13;8.20;;;8.30;71.70;;;;;;6277185;28;20853;-63
2022/02/18 06:50:33;;;;;;;12.07;4.80;;;8.30;71.20;;;;;;6276695;28;20966;-63
2022/02/18 06:53:37;;;;;;;10.97;4.20;;;8.40;71.60;;;;;;6277065;28;20967;-63
2022/02/18 06:56:41;;;;;;;10.97;4.00;;;8.40;71.70;;;;;;6277726;28;20466;-63
2022/02/18 06:59:45;;;;;;;13.07;4.90;;;8.50;71.60;;;;;;6276603;28;20508;-63
2022/02/18 07:02:48;;;;;;;10.37;3.80;;;8.60;71.10;;;;;;6276328;28;20468;-63
2022/02/18 07:05:51;;;;;;;13.70;4.63;;;8.80;70.60;;;;;;6276335;28;20974;-63
2022/02/18 07:08:54;;;;;;;11.63;3.97;;;8.80;70.20;;;;;;6277656;28;20476;-63
2022/02/18 07:11:57;;;;;;;12.47;4.30;;;8.90;70.00;;;;;;6276696;28;20486;-63
2022/02/18 07:15:02;;;;;;;12.33;3.70;;;9.10;69.80;;;;;;6276716;28;20487;-63
2022/02/18 07:18:06;;;;;;;12.77;5.37;;;9.20;69.50;;;;;;6276333;28;20472;-63
2022/02/18 07:21:09;;;;;;;12.27;5.13;;;9.20;69.50;;;;;;6276614;28;20990;-63
2022/02/18 07:24:14;;;;;;;19.50;5.53;;;9.30;69.10;;;;;;6276324;28;20495;-63
2022/02/18 07:27:17;;;;;;;20.17;5.00;;;9.40;69.20;;;;;;6276152;28;20483;-63
2022/02/18 07:30:22;;;;;;;8.90;4.57;;;9.40;68.70;;;;;;6275725;28;20496;-63
2022/02/18 07:33:25;;;;;;;18.03;4.40;;;9.40;68.50;;;;;;6275737;28;20485;-64
2022/02/18 07:36:28;;;;;;;15.67;4.13;;;9.50;68.00;;;;;;6275604;28;20477;-64
2022/02/18 07:39:31;;;;;;;16.47;4.10;;;9.50;67.90;;;;;;6275520;28;20473;-63
2022/02/18 07:42:34;;;;;;;12.60;4.73;;;9.40;67.90;;;;;;6266651;28;20469;-64
2022/02/18 07:45:39;;;;;;;13.40;6.13;;;9.40;67.90;;;;;;6275810;28;20477;-64
2022/02/18 07:48:43;;;;;;;16.73;5.10;;;9.40;68.00;;;;;;6275819;28;20473;-64
2022/02/18 07:51:46;;;;;;;17.30;4.73;;;9.40;68.20;;;;;;6276404;28;20863;-64
2022/02/18 07:54:49;;;;;;;7.37;3.97;;;9.40;68.20;;;;;;6275654;28;20487;-63
2022/02/18 07:57:52;;;;;;;7.83;3.97;;;9.50;67.30;;;;;;6275517;28;20579;-63
2022/02/18 08:00:57;;;;;;;7.37;3.97;;;9.50;67.00;;;;;;6275596;28;20527;-63
2022/02/18 08:04:01;;;;;;;9.90;4.67;;;9.60;66.70;;;;;;6275480;28;20490;-62
2022/02/18 08:07:05;;;;;;;7.97;4.57;;;9.70;66.20;;;;;;6275214;28;20484;-62
2022/02/18 08:10:10;;;;;;;14.27;4.70;;;9.80;66.00;;;;;;6274963;28;21011;-62
2022/02/18 08:13:13;;;;;;;6.57;3.60;;;9.80;66.00;;;;;;6274417;28;20469;-63
2022/02/18 08:16:17;;;;;;;8.03;3.63;;;9.90;65.40;;;;;;6275644;28;20476;-63
2022/02/18 08:19:21;;;;;;;12.30;3.57;;;9.90;64.80;;;;;;6275507;28;20479;-62
2022/02/18 08:22:27;;;;;;;10.17;3.77;;;10.10;63.80;;;;;;6275266;28;20480;-63
2022/02/18 08:25:30;;;;;;;12.60;4.23;;;10.10;63.50;;;;;;6275007;28;20478;-62
2022/02/18 08:28:33;;;;;;;9.10;3.53;;;10.20;63.20;;;;;;6275257;28;20477;-63
2022/02/18 08:31:44;;;;;;;8.20;4.00;;;10.30;62.90;;;;;;6275640;28;20484;-63
2022/02/18 08:34:47;;;;;;;9.53;4.40;;;10.40;62.30;;;;;;6275699;28;20438;-64
2022/02/18 08:37:50;;;;;;;9.90;4.60;;;10.40;62.20;;;;;;6275087;28;20459;-64
2022/02/18 08:40:55;;;;;;;13.77;4.10;;;10.50;61.60;;;;;;6275313;28;20457;-64
2022/02/18 08:43:58;;;;;;;8.30;4.20;;;10.70;61.10;;;;;;6266931;28;20512;-64
2022/02/18 08:47:03;;;;;;;8.80;4.53;;;10.80;60.00;;;;;;6276197;28;20465;-64
2022/02/18 08:50:09;;;;;;;15.10;4.93;;;11.00;59.70;;;;;;6274938;28;20972;-64
2022/02/18 08:53:12;;;;;;;9.07;4.60;;;11.30;59.60;;;;;;6274931;28;20973;-64
2022/02/18 08:56:15;;;;;;;12.37;4.63;;;11.60;59.00;;;;;;6275070;28;20835;-64
2022/02/18 08:59:18;;;;;;;12.30;3.97;;;12.00;58.40;;;;;;6275131;28;20473;-64
2022/02/18 09:02:24;;;;;;;7.30;3.97;;;12.60;57.40;;;;;;6275064;28;20806;-64
2022/02/18 09:05:28;;;;;;;9.67;4.80;;;15.50;54.10;;;;;;6275727;28;20486;-64
2022/02/18 09:08:31;;;;;;;9.53;4.90;;;19.90;47.60;;;;;;6275325;28;20493;-64
2022/02/18 09:11:34;;;;;;;6.97;4.80;;;24.20;38.50;;;;;;6275410;28;20240;-64
2022/02/18 09:14:37;;;;;;;7.23;4.70;;;27.60;31.10;;;;;;6275666;28;20227;-65
2022/02/18 09:17:41;;;;;;;12.47;4.77;;;30.40;27.10;;;;;;6275499;28;20242;-65
2022/02/18 09:20:47;;;;;;;7.18;3.78;;;33.00;23.90;;;;;;6275491;28;20246;-65
2022/02/18 09:23:50;;;;;;;9.75;4.65;;;34.10;20.70;;;;;;6275004;28;20251;-65
2022/02/18 09:26:53;;;;;;;6.45;5.10;;;35.20;19.60;;;;;;6279988;28;20227;-65
2022/02/18 09:29:59;;;;;;;9.93;4.35;;;35.80;18.90;;;;;;6279677;28;20235;-64
2022/02/18 09:33:04;;;;;;;10.98;6.45;;;36.80;17.90;;;;;;6280067;28;20277;-65
2022/02/18 09:36:09;;;;;;;12.52;8.20;;;38.00;17.10;;;;;;6279810;28;20241;-64
2022/02/18 09:39:13;;;;;;;13.40;7.63;;;38.20;16.60;;;;;;6280230;28;20317;-64
2022/02/18 09:42:18;;;;;;;28.13;20.48;;;36.30;16.80;;;;;;6279427;28;20281;-64
2022/02/18 09:45:22;;;;;;;12.75;9.38;;;33.30;18.10;;;;;;6279411;28;20223;-64
2022/02/18 09:48:27;;;;;;;10.07;5.97;;;30.10;20.20;;;;;;6280013;28;20223;-64
2022/02/18 09:51:30;;;;;;;13.00;5.17;;;28.10;22.00;;;;;;6281221;28;20242;-64
2022/02/18 09:54:34;;;;;;;7.87;4.60;;;28.40;22.70;;;;;;6280469;28;20231;-64
2022/02/18 09:57:37;;;;;;;7.10;4.10;;;30.60;21.60;;;;;;6279364;28;20576;-65
2022/02/18 10:01:00;;;;;;;9.45;4.00;;;33.50;20.10;;;;;;6278926;28;20767;-64
2022/02/18 10:04:05;;;;;;;11.98;5.20;;;35.80;18.00;;;;;;6280913;28;20312;-65
2022/02/18 10:07:09;;;;;;;7.85;4.00;;;37.70;16.90;;;;;;6280846;28;20235;-65
2022/02/18 10:10:15;;;;;;;4.38;3.45;;;39.40;15.90;;;;;;6280694;28;20230;-65
2022/02/18 10:13:30;;;;;;;6.53;3.85;;;40.60;15.10;;;;;;6279947;28;20250;-65
2022/02/18 10:16:34;;;;;;;5.13;3.50;;;40.50;14.70;;;;;;6280348;28;20683;-65
2022/02/18 10:19:50;;;;;;;5.95;3.47;;;41.40;14.30;;;;;;6280376;28;20234;-65
2022/02/18 10:22:58;;;;;;;4.47;3.72;;;42.40;14.10;;;;;;6281057;28;20230;-65
2022/02/18 10:26:04;;;;;;;5.07;3.60;;;42.20;13.70;;;;;;6301857;28;20238;-64
2022/02/18 10:29:08;;;;;;;4.55;3.58;;;42.30;13.70;;;;;;6279748;28;20231;-65
2022/02/18 10:32:14;;;;;;;5.07;3.50;;;42.90;13.70;;;;;;6280421;28;20226;-64
2022/02/18 10:35:19;;;;;;;4.28;3.50;;;41.90;13.90;;;;;;6279892;28;20675;-65
2022/02/18 10:38:31;;;;;;;4.68;3.70;;;42.30;13.70;;;;;;6279324;28;20235;-64
2022/02/18 10:41:34;;;;;;;5.35;3.28;;;42.30;13.50;;;;;;6279654;28;20242;-65
2022/02/18 10:44:38;;;;;;;4.15;3.25;;;43.20;13.40;;;;;;6278434;28;20239;-64
2022/02/18 10:47:43;;;;;;;6.63;3.10;;;43.70;13.10;;;;;;6278016;28;20675;-65
2022/02/18 10:51:14;;;;;;;17.90;16.15;;;43.60;13.10;;;;;;6273388;28;20227;-65
2022/02/18 10:54:18;;;;;;;4.20;3.15;;;43.30;13.20;;;;;;6277879;28;20254;-64
2022/02/18 10:57:23;;;;;;;10.32;9.32;;;42.70;13.10;;;;;;6278480;28;20670;-65
2022/02/18 11:00:26;;;;;;;19.55;13.75;;;39.80;14.10;;;;;;6278623;28;20226;-65
2022/02/18 11:03:30;;;;;;;8.07;6.72;;;37.00;15.80;;;;;;6277760;28;20689;-66
2022/02/18 11:06:37;;;;;;;6.90;5.68;;;34.60;17.50;;;;;;6278009;28;20227;-64
2022/02/18 11:09:41;;;;;;;11.70;8.10;;;31.90;19.50;;;;;;6277212;28;20234;-64
2022/02/18 11:12:53;;;;;;;7.60;4.73;;;30.30;20.80;;;;;;6276485;28;20666;-64
2022/02/18 11:15:57;;;;;;;4.17;3.70;;;28.80;22.20;;;;;;6278543;28;20235;-63
2022/02/18 11:19:01;;;;;;;5.40;3.87;;;28.20;23.00;;;;;;6276767;28;20238;-65
2022/02/18 11:22:06;;;;;;;4.03;3.13;;;29.40;23.30;;;;;;6276412;28;20293;-64
2022/02/18 11:25:11;;;;;;;3.67;3.10;;;33.80;20.70;;;;;;6276470;28;20608;-65
2022/02/18 11:28:14;;;;;;;6.80;4.50;;;37.60;18.20;;;;;;6276604;28;20227;-65
2022/02/18 11:31:22;;;;;;;5.70;3.85;;;39.50;16.30;;;;;;6276351;28;20227;-64
2022/02/18 11:34:47;;;;;;;4.07;3.67;;;39.10;16.30;;;;;;6276859;28;20360;-63
2022/02/18 11:38:07;;;;;;;6.95;3.95;;;39.00;16.40;;;;;;6277776;28;20219;-65
2022/02/18 11:41:21;;;;;;;4.18;3.55;;;38.40;16.70;;;;;;6297908;28;20231;-64
2022/02/18 11:44:32;;;;;;;4.55;3.85;;;38.60;16.70;;;;;;6276426;28;20601;-65
2022/02/18 11:47:36;;;;;;;5.45;4.07;;;38.80;16.50;;;;;;6276040;28;20241;-65
2022/02/18 11:50:39;;;;;;;4.25;3.40;;;38.50;16.50;;;;;;6276320;28;20234;-64
2022/02/18 11:53:46;;;;;;;3.92;3.63;;;37.80;16.90;;;;;;6276158;28;20246;-66
2022/02/18 11:56:53;;;;;;;4.40;2.88;;;38.60;16.90;;;;;;6272737;28;20227;-65
2022/02/18 11:59:59;;;;;;;5.68;3.17;;;40.70;16.00;;;;;;6276074;28;20234;-65
2022/02/18 12:03:10;;;;;;;3.17;2.97;;;42.40;15.10;;;;;;6275450;28;20234;-64
2022/02/18 12:06:16;;;;;;;5.13;4.65;;;43.20;14.40;;;;;;6275892;28;20569;-64
2022/02/18 12:09:52;;;;;;;5.15;3.95;;;42.60;14.40;;;;;;6276602;28;20246;-65
2022/02/18 12:13:02;;;;;;;4.95;4.47;;;42.30;14.70;;;;;;6275615;28;20258;-64
2022/02/18 12:16:06;;;;;;;3.97;3.67;;;41.70;14.70;;;;;;6275687;28;20231;-65
2022/02/18 12:19:13;;;;;;;4.63;3.40;;;42.10;15.00;;;;;;6275310;28;20249;-65
2022/02/18 12:22:32;;;;;;;5.53;3.78;;;43.00;14.30;;;;;;6275795;28;20242;-66
2022/02/18 12:25:44;;;;;;;3.75;3.05;;;44.10;13.70;;;;;;6275059;28;20246;-64
2022/02/18 12:28:48;;;;;;;3.22;3.03;;;44.00;13.80;;;;;;6274925;28;20214;-64
2022/02/18 12:31:52;;;;;;;3.13;2.83;;;44.10;13.70;;;;;;6275403;28;20242;-64
2022/02/18 12:35:01;;;;;;;3.15;1.80;;;44.90;13.40;;;;;;6275792;28;20309;-65
2022/02/18 12:38:10;;;;;;;2.10;1.90;;;44.20;12.80;;;;;;6276421;28;20231;-65
2022/02/18 12:41:17;;;;;;;2.95;1.77;;;43.30;13.20;;;;;;6278439;28;20274;-64
2022/02/18 12:44:20;;;;;;;2.17;2.05;;;42.30;13.10;;;;;;6275852;28;20334;-64
2022/02/18 12:47:24;;;;;;;2.47;1.80;;;41.30;13.30;;;;;;6276159;28;20250;-65
2022/02/18 12:50:33;;;;;;;1.92;1.70;;;40.60;13.50;;;;;;6275958;28;20270;-65
2022/02/18 12:53:36;;;;;;;2.55;2.30;;;42.40;13.20;;;;;;6276358;28;20227;-64
2022/02/18 12:56:41;;;;;;;2.55;1.90;;;43.30;12.90;;;;;;6275916;28;20556;-64
2022/02/18 12:59:44;;;;;;;1.85;1.75;;;43.50;12.90;;;;;;6268360;28;20678;-64
2022/02/18 13:02:50;;;;;;;1.63;1.52;;;43.40;12.80;;;;;;6280903;28;20250;-64
2022/02/18 13:06:04;;;;;;;2.20;2.00;;;43.20;12.60;;;;;;6281045;28;20274;-65
2022/02/18 13:09:07;;;;;;;2.90;2.17;;;43.70;12.60;;;;;;6280789;28;20227;-65
2022/02/18 13:12:19;;;;;;;3.95;1.90;;;43.20;12.90;;;;;;6280542;28;20670;-65
2022/02/18 13:15:24;;;;;;;2.30;2.10;;;42.30;13.00;;;;;;6279923;28;20235;-64
2022/02/18 13:18:27;;;;;;;3.88;2.25;;;41.50;13.40;;;;;;6281578;28;20235;-64
2022/02/18 13:21:30;;;;;;;3.55;2.08;;;42.60;13.40;;;;;;6280432;28;20230;-64
2022/02/18 13:24:40;;;;;;;4.18;2.30;;;43.40;12.70;;;;;;6279839;28;20232;-65
2022/02/18 13:27:45;;;;;;;2.63;2.17;;;42.90;12.90;;;;;;6279810;28;20235;-64
2022/02/18 13:30:51;;;;;;;2.42;1.90;;;41.40;13.20;;;;;;6280065;28;20697;-64
2022/02/18 13:33:54;;;;;;;1.67;1.58;;;39.50;14.00;;;;;;6279857;28;20239;-64
2022/02/18 13:36:57;;;;;;;4.03;2.30;;;37.30;15.30;;;;;;6279324;28;20709;-64
2022/02/18 13:40:01;;;;;;;3.25;2.40;;;36.20;16.00;;;;;;6279142;28;20540;-64
2022/02/18 13:43:05;;;;;;;1.98;1.77;;;37.90;15.60;;;;;;6278996;28;20235;-64
2022/02/18 13:46:10;;;;;;;2.00;1.67;;;39.20;14.60;;;;;;6279065;28;20239;-64
2022/02/18 13:49:14;;;;;;;1.80;1.60;;;39.50;14.10;;;;;;6279303;28;20261;-64
2022/02/18 13:52:17;;;;;;;2.22;1.77;;;40.10;13.70;;;;;;6279367;28;20237;-64
2022/02/18 13:55:26;;;;;;;2.72;1.88;;;37.90;14.60;;;;;;6278872;28;20227;-65
2022/02/18 13:58:32;;;;;;;2.10;1.75;;;37.20;15.00;;;;;;6280558;28;20231;-64
2022/02/18 14:01:37;;;;;;;2.80;2.10;;;36.10;15.90;;;;;;6281312;28;20249;-65
2022/02/18 14:04:46;;;;;;;2.38;2.13;;;35.00;16.70;;;;;;6275034;28;20646;-65
2022/02/18 14:07:52;;;;;;;3.00;2.40;;;32.80;18.20;;;;;;6281093;28;20296;-66
2022/02/18 14:10:55;;;;;;;2.40;2.20;;;32.00;19.00;;;;;;6301988;28;20202;-66
2022/02/18 14:14:16;;;;;;;3.83;2.13;;;31.20;19.60;;;;;;6278206;28;20235;-65
2022/02/18 14:17:25;;;;;;;3.37;2.67;;;29.00;21.20;;;;;;6278690;28;20249;-64
2022/02/18 14:20:28;;;;;;;2.53;2.17;;;26.30;23.50;;;;;;6278701;28;20231;-64
2022/02/18 14:23:32;;;;;;;2.10;1.90;;;24.80;25.10;;;;;;6278271;28;20246;-64
2022/02/18 14:26:36;;;;;;;2.53;2.10;;;24.10;26.00;;;;;;6279334;28;20235;-63
2022/02/18 14:29:52;;;;;;;3.90;2.70;;;23.10;27.40;;;;;;6280084;28;20231;-65
2022/02/18 14:32:56;;;;;;;3.00;2.70;;;21.90;29.20;;;;;;6279067;28;20710;-65
2022/02/18 14:35:59;;;;;;;2.67;2.47;;;21.40;30.00;;;;;;6279520;28;20522;-64
2022/02/18 14:39:06;;;;;;;3.80;2.60;;;21.00;30.70;;;;;;6279762;28;20239;-64
2022/02/18 14:42:14;;;;;;;3.17;2.40;;;20.10;32.10;;;;;;6279522;28;20675;-64
2022/02/18 14:45:24;;;;;;;2.87;2.57;;;19.50;32.90;;;;;;6279691;28;20307;-64
2022/02/18 14:48:27;;;;;;;3.60;2.40;;;18.70;34.80;;;;;;6279416;28;20243;-64
2022/02/18 14:51:30;;;;;;;3.43;2.60;;;18.30;35.70;;;;;;6279095;28;20231;-64
2022/02/18 14:54:33;;;;;;;2.73;2.27;;;18.20;36.20;;;;;;6279035;28;20242;-64
2022/02/18 14:57:39;;;;;;;3.23;2.43;;;18.10;36.60;;;;;;6278803;28;20668;-64
2022/02/18 15:00:45;;;;;;;2.57;2.37;;;18.00;37.30;;;;;;6278572;28;20682;-64
2022/02/18 15:03:48;;;;;;;3.23;2.90;;;17.80;37.80;;;;;;6278824;28;20242;-64
2022/02/18 15:06:53;;;;;;;3.00;2.63;;;17.70;38.30;;;;;;6274148;28;20289;-63
2022/02/18 15:09:56;;;;;;;3.27;2.47;;;17.60;38.90;;;;;;6278471;28;20478;-64
2022/02/18 15:12:59;;;;;;;3.07;2.70;;;17.30;39.70;;;;;;6278933;28;20482;-65
2022/02/18 15:16:04;;;;;;;2.73;2.53;;;17.20;40.20;;;;;;6278391;28;20230;-64
2022/02/18 15:19:07;;;;;;;3.53;2.43;;;17.10;40.60;;;;;;6278493;28;20982;-64
2022/02/18 15:22:11;;;;;;;2.77;2.57;;;17.00;41.00;;;;;;6277998;28;20544;-64
2022/02/18 15:25:14;;;;;;;3.17;2.87;;;17.00;41.40;;;;;;6278526;28;20494;-65
2022/02/18 15:28:17;;;;;;;3.63;2.73;;;16.90;41.60;;;;;;6278156;28;20235;-65
2022/02/18 15:34:43;;;;;;;3.60;3.30;;;16.60;42.20;;;;;;6277970;28;20455;-64
2022/02/18 15:37:47;;;;;;;3.00;2.80;;;16.60;42.90;;;;;;6277209;28;20465;-64
2022/02/18 15:44:10;;;;;;;3.30;2.97;;;16.50;43.30;;;;;;6277753;28;20550;-64
2022/02/18 15:47:16;;;;;;;4.73;2.83;;;16.40;43.60;;;;;;6277360;28;20504;-64
2022/02/18 15:50:20;;;;;;;6.70;3.07;;;16.40;43.90;;;;;;6277480;28;20478;-64
2022/02/18 15:53:23;;;;;;;3.43;3.13;;;16.30;44.20;;;;;;6277575;28;20877;-65
2022/02/18 15:56:27;;;;;;;3.17;2.73;;;16.30;44.40;;;;;;6276856;28;20471;-64
2022/02/18 15:59:30;;;;;;;3.93;2.77;;;16.20;44.70;;;;;;6277375;28;20483;-65
2022/02/18 16:02:35;;;;;;;3.10;2.80;;;16.20;45.00;;;;;;6276254;28;20466;-64
2022/02/18 16:05:39;;;;;;;5.10;2.60;;;16.10;45.50;;;;;;6277183;28;20489;-63
2022/02/18 16:08:42;;;;;;;3.27;2.93;;;15.90;46.00;;;;;;6276762;28;20470;-64
2022/02/18 16:11:45;;;;;;;5.80;3.53;;;15.70;46.50;;;;;;6272138;28;20555;-64
2022/02/18 16:14:49;;;;;;;4.10;3.37;;;15.50;47.30;;;;;;6276483;28;20535;-64